sensor_id;sensor_type;location;lat;lon;timestamp;pressure;altitude;pressure_sealevel;temperature;humidity
75317;BME280;63913;51.492;10.368;2023-12-22T00:02:09;96281.53;;;3.58;83.13
75317;BME280;63913;51.492;10.368;2023-12-22T00:04:34;96272.28;;;3.62;82.71
75317;BME280;63913;51.492;10.368;2023-12-22T00:07:00;96284.97;;;3.60;83.09
75317;BME280;63913;51.492;10.368;2023-12-22T00:09:25;96301.97;;;3.66;83.40
75317;BME280;63913;51.492;10.368;2023-12-22T00:11:50;96301.09;;;3.65;83.37
75317;BME280;63913;51.492;10.368;2023-12-22T00:14:15;96302.81;;;3.65;83.02
75317;BME280;63913;51.492;10.368;2023-12-22T00:16:41;96296.09;;;3.70;82.03
75317;BME280;63913;51.492;10.368;2023-12-22T00:19:06;96278.28;;;3.68;82.82
75317;BME280;63913;51.492;10.368;2023-12-22T00:21:31;96285.97;;;3.71;81.44
75317;BME280;63913;51.492;10.368;2023-12-22T00:23:57;96274.13;;;3.75;80.49
75317;BME280;63913;51.492;10.368;2023-12-22T00:26:23;96284.28;;;3.75;80.92
75317;BME280;63913;51.492;10.368;2023-12-22T00:28:48;96278.38;;;3.73;81.97
75317;BME280;63913;51.492;10.368;2023-12-22T00:31:13;96292.75;;;3.72;81.23
75317;BME280;63913;51.492;10.368;2023-12-22T00:33:39;96291.06;;;3.73;80.53
75317;BME280;63913;51.492;10.368;2023-12-22T00:36:04;96302.09;;;3.75;80.13
75317;BME280;63913;51.492;10.368;2023-12-22T00:38:30;96291.06;;;3.74;79.98
75317;BME280;63913;51.492;10.368;2023-12-22T00:40:56;96315.63;;;3.75;79.73
75317;BME280;63913;51.492;10.368;2023-12-22T00:43:21;96301.25;;;3.76;80.28
75317;BME280;63913;51.492;10.368;2023-12-22T00:45:47;96281.72;;;3.73;81.61
75317;BME280;63913;51.492;10.368;2023-12-22T00:48:12;96320.69;;;3.74;81.50
75317;BME280;63913;51.492;10.368;2023-12-22T00:50:37;96285.97;;;3.73;82.05
75317;BME280;63913;51.492;10.368;2023-12-22T00:53:03;96280.91;;;3.73;81.63
75317;BME280;63913;51.492;10.368;2023-12-22T00:55:28;96298.66;;;3.71;81.81
75317;BME280;63913;51.492;10.368;2023-12-22T00:57:54;96296.97;;;3.70;81.57
75317;BME280;63913;51.492;10.368;2023-12-22T01:00:19;96285.06;;;3.69;81.82
75317;BME280;63913;51.492;10.368;2023-12-22T01:02:44;96296.09;;;3.70;81.68
75317;BME280;63913;51.492;10.368;2023-12-22T01:05:10;96282.47;;;3.66;82.72
75317;BME280;63913;51.492;10.368;2023-12-22T01:07:35;96297.75;;;3.68;82.31
75317;BME280;63913;51.492;10.368;2023-12-22T01:10:01;96294.34;;;3.64;82.08
75317;BME280;63913;51.492;10.368;2023-12-22T01:12:27;96303.69;;;3.68;81.36
75317;BME280;63913;51.492;10.368;2023-12-22T01:14:55;96306.19;;;3.65;82.12
75317;BME280;63913;51.492;10.368;2023-12-22T01:17:21;96330.72;;;3.62;81.93
75317;BME280;63913;51.492;10.368;2023-12-22T01:19:46;96345.97;;;3.62;81.77
75317;BME280;63913;51.492;10.368;2023-12-22T01:22:11;96342.59;;;3.66;79.61
75317;BME280;63913;51.492;10.368;2023-12-22T01:24:37;96352.81;;;3.67;79.57
75317;BME280;63913;51.492;10.368;2023-12-22T01:27:06;96335.84;;;3.66;80.51
75317;BME280;63913;51.492;10.368;2023-12-22T01:29:31;96333.28;;;3.63;80.13
75317;BME280;63913;51.492;10.368;2023-12-22T01:31:56;96318.91;;;3.67;79.86
75317;BME280;63913;51.492;10.368;2023-12-22T01:34:22;96330.78;;;3.68;80.09
75317;BME280;63913;51.492;10.368;2023-12-22T01:36:47;96327.38;;;3.67;79.26
75317;BME280;63913;51.492;10.368;2023-12-22T01:39:12;96324.81;;;3.66;79.72
75317;BME280;63913;51.492;10.368;2023-12-22T01:41:38;96315.56;;;3.69;79.44
75317;BME280;63913;51.492;10.368;2023-12-22T01:44:03;96312.19;;;3.70;80.13
75317;BME280;63913;51.492;10.368;2023-12-22T01:46:28;96303.72;;;3.70;79.67
75317;BME280;63913;51.492;10.368;2023-12-22T01:48:54;96292.69;;;3.69;79.74
75317;BME280;63913;51.492;10.368;2023-12-22T01:51:19;96297.03;;;3.76;78.18
75317;BME280;63913;51.492;10.368;2023-12-22T01:53:46;96336.81;;;3.76;80.03
75317;BME280;63913;51.492;10.368;2023-12-22T01:56:11;96324.81;;;3.66;83.42
75317;BME280;63913;51.492;10.368;2023-12-22T01:58:37;96317.19;;;3.63;83.59
75317;BME280;63913;51.492;10.368;2023-12-22T02:01:13;96334.03;;;3.56;85.79
75317;BME280;63913;51.492;10.368;2023-12-22T02:03:39;96345.75;;;3.47;88.50
75317;BME280;63913;51.492;10.368;2023-12-22T02:06:05;96360.78;;;3.34;90.97
75317;BME280;63913;51.492;10.368;2023-12-22T02:08:32;96368.22;;;3.22;93.77
75317;BME280;63913;51.492;10.368;2023-12-22T02:10:58;96364.66;;;3.13;96.56
75317;BME280;63913;51.492;10.368;2023-12-22T02:13:23;96372.06;;;3.00;98.97
75317;BME280;63913;51.492;10.368;2023-12-22T02:16:05;96371.94;;;2.91;100.00
75317;BME280;63913;51.492;10.368;2023-12-22T02:18:39;96373.50;;;2.83;100.00
75317;BME280;63913;51.492;10.368;2023-12-22T02:21:06;96380.78;;;2.68;100.00
75317;BME280;63913;51.492;10.368;2023-12-22T02:23:31;96381.47;;;2.58;100.00
75317;BME280;63913;51.492;10.368;2023-12-22T02:26:06;96371.97;;;2.48;100.00
75317;BME280;63913;51.492;10.368;2023-12-22T02:28:38;96380.47;;;2.50;100.00
75317;BME280;63913;51.492;10.368;2023-12-22T02:31:16;96396.56;;;2.52;100.00
75317;BME280;63913;51.492;10.368;2023-12-22T02:33:42;96389.84;;;2.54;100.00
75317;BME280;63913;51.492;10.368;2023-12-22T02:36:09;96404.16;;;2.50;100.00
75317;BME280;63913;51.492;10.368;2023-12-22T02:38:37;96392.19;;;2.43;100.00
75317;BME280;63913;51.492;10.368;2023-12-22T02:41:03;96384.50;;;2.40;100.00
75317;BME280;63913;51.492;10.368;2023-12-22T02:43:31;96394.59;;;2.37;100.00
75317;BME280;63913;51.492;10.368;2023-12-22T02:45:56;96381.00;;;2.34;100.00
75317;BME280;63913;51.492;10.368;2023-12-22T02:48:21;96380.19;;;2.35;100.00
75317;BME280;63913;51.492;10.368;2023-12-22T02:50:47;96381.84;;;2.33;100.00
75317;BME280;63913;51.492;10.368;2023-12-22T02:53:12;96369.19;;;2.36;100.00
75317;BME280;63913;51.492;10.368;2023-12-22T02:55:37;96373.38;;;2.32;100.00
75317;BME280;63913;51.492;10.368;2023-12-22T02:58:03;96405.50;;;2.33;100.00
75317;BME280;63913;51.492;10.368;2023-12-22T03:00:28;96397.75;;;2.25;100.00
75317;BME280;63913;51.492;10.368;2023-12-22T03:02:53;96404.47;;;2.23;100.00
75317;BME280;63913;51.492;10.368;2023-12-22T03:05:19;96402.66;;;2.19;100.00
75317;BME280;63913;51.492;10.368;2023-12-22T03:07:44;96397.63;;;2.21;100.00
75317;BME280;63913;51.492;10.368;2023-12-22T03:10:09;96390.84;;;2.20;100.00
75317;BME280;63913;51.492;10.368;2023-12-22T03:12:35;96387.47;;;2.19;100.00
75317;BME280;63913;51.492;10.368;2023-12-22T03:15:00;96379.81;;;2.16;100.00
75317;BME280;63913;51.492;10.368;2023-12-22T03:17:26;96385.84;;;2.23;99.73
75317;BME280;63913;51.492;10.368;2023-12-22T03:19:51;96378.19;;;2.20;99.96
75317;BME280;63913;51.492;10.368;2023-12-22T03:22:16;96379.03;;;2.20;99.64
75317;BME280;63913;51.492;10.368;2023-12-22T03:24:42;96380.75;;;2.21;98.23
75317;BME280;63913;51.492;10.368;2023-12-22T03:27:07;96385.13;;;2.28;97.36
75317;BME280;63913;51.492;10.368;2023-12-22T03:29:33;96382.56;;;2.27;97.67
75317;BME280;63913;51.492;10.368;2023-12-22T03:31:58;96386.03;;;2.32;97.10
75317;BME280;63913;51.492;10.368;2023-12-22T03:34:23;96385.28;;;2.38;96.27
75317;BME280;63913;51.492;10.368;2023-12-22T03:36:49;96390.47;;;2.42;95.51
75317;BME280;63913;51.492;10.368;2023-12-22T03:39:15;96398.94;;;2.43;95.43
75317;BME280;63913;51.492;10.368;2023-12-22T03:41:40;96408.16;;;2.39;95.74
75317;BME280;63913;51.492;10.368;2023-12-22T03:44:06;96413.19;;;2.38;96.29
75317;BME280;63913;51.492;10.368;2023-12-22T03:46:32;96408.06;;;2.35;98.45
75317;BME280;63913;51.492;10.368;2023-12-22T03:48:57;96409.66;;;2.29;99.28
75317;BME280;63913;51.492;10.368;2023-12-22T03:51:22;96405.34;;;2.25;98.69
75317;BME280;63913;51.492;10.368;2023-12-22T03:53:48;96417.06;;;2.20;97.93
75317;BME280;63913;51.492;10.368;2023-12-22T03:56:13;96411.16;;;2.21;97.61
75317;BME280;63913;51.492;10.368;2023-12-22T03:58:39;96399.31;;;2.19;97.90
75317;BME280;63913;51.492;10.368;2023-12-22T04:01:04;96404.19;;;2.11;99.01
75317;BME280;63913;51.492;10.368;2023-12-22T04:03:32;96406.72;;;2.10;100.00
75317;BME280;63913;51.492;10.368;2023-12-22T04:05:58;96406.72;;;2.10;100.00
75317;BME280;63913;51.492;10.368;2023-12-22T04:08:23;96411.72;;;2.07;100.00
75317;BME280;63913;51.492;10.368;2023-12-22T04:10:49;96416.81;;;2.08;100.00
75317;BME280;63913;51.492;10.368;2023-12-22T04:13:14;96426.09;;;2.08;100.00
75317;BME280;63913;51.492;10.368;2023-12-22T04:15:39;96427.84;;;2.10;100.00
75317;BME280;63913;51.492;10.368;2023-12-22T04:18:05;96415.06;;;2.06;100.00
75317;BME280;63913;51.492;10.368;2023-12-22T04:20:30;96403.91;;;1.98;100.00
75317;BME280;63913;51.492;10.368;2023-12-22T04:22:56;96417.34;;;1.94;100.00
75317;BME280;63913;51.492;10.368;2023-12-22T04:25:22;96398.75;;;1.93;100.00
75317;BME280;63913;51.492;10.368;2023-12-22T04:27:48;96398.88;;;1.99;100.00
75317;BME280;63913;51.492;10.368;2023-12-22T04:30:15;96397.16;;;1.98;100.00
75317;BME280;63913;51.492;10.368;2023-12-22T04:32:40;96393.72;;;1.95;100.00
75317;BME280;63913;51.492;10.368;2023-12-22T04:35:05;96384.47;;;1.97;100.00
75317;BME280;63913;51.492;10.368;2023-12-22T04:37:31;96378.66;;;2.01;100.00
75317;BME280;63913;51.492;10.368;2023-12-22T04:39:56;96374.59;;;2.09;100.00
75317;BME280;63913;51.492;10.368;2023-12-22T04:42:22;96380.53;;;2.09;100.00
75317;BME280;63913;51.492;10.368;2023-12-22T04:44:47;96368.69;;;2.10;100.00
75317;BME280;63913;51.492;10.368;2023-12-22T04:47:13;96395.97;;;2.21;100.00
75317;BME280;63913;51.492;10.368;2023-12-22T04:49:38;96425.53;;;2.21;100.00
75317;BME280;63913;51.492;10.368;2023-12-22T04:52:04;96399.47;;;2.26;98.41
75317;BME280;63913;51.492;10.368;2023-12-22T04:54:29;96380.88;;;2.27;98.43
75317;BME280;63913;51.492;10.368;2023-12-22T04:56:55;96380.09;;;2.30;97.45
75317;BME280;63913;51.492;10.368;2023-12-22T04:59:20;96380.97;;;2.32;96.84
75317;BME280;63913;51.492;10.368;2023-12-22T05:01:48;96372.59;;;2.35;97.16
75317;BME280;63913;51.492;10.368;2023-12-22T05:04:13;96362.59;;;2.44;95.76
75317;BME280;63913;51.492;10.368;2023-12-22T05:06:39;96346.56;;;2.45;94.66
75317;BME280;63913;51.492;10.368;2023-12-22T05:09:04;96361.03;;;2.50;94.54
75317;BME280;63913;51.492;10.368;2023-12-22T05:11:29;96341.59;;;2.49;95.30
75317;BME280;63913;51.492;10.368;2023-12-22T05:13:55;96358.63;;;2.56;95.21
75317;BME280;63913;51.492;10.368;2023-12-22T05:16:20;96339.19;;;2.57;95.81
75317;BME280;63913;51.492;10.368;2023-12-22T05:18:46;96334.13;;;2.57;94.70
75317;BME280;63913;51.492;10.368;2023-12-22T05:21:12;96326.53;;;2.58;95.15
75317;BME280;63913;51.492;10.368;2023-12-22T05:23:39;96345.19;;;2.62;94.96
75317;BME280;63913;51.492;10.368;2023-12-22T05:26:04;96336.75;;;2.63;95.92
75317;BME280;63913;51.492;10.368;2023-12-22T05:28:30;96329.13;;;2.63;97.03
75317;BME280;63913;51.492;10.368;2023-12-22T05:30:55;96327.50;;;2.65;96.89
75317;BME280;63913;51.492;10.368;2023-12-22T05:33:20;96337.56;;;2.62;98.32
75317;BME280;63913;51.492;10.368;2023-12-22T05:35:46;96343.50;;;2.62;98.55
75317;BME280;63913;51.492;10.368;2023-12-22T05:38:11;96340.06;;;2.60;99.34
75317;BME280;63913;51.492;10.368;2023-12-22T05:40:37;96339.97;;;2.54;100.00
75317;BME280;63913;51.492;10.368;2023-12-22T05:43:02;96347.38;;;2.42;100.00
75317;BME280;63913;51.492;10.368;2023-12-22T05:45:27;96354.72;;;2.30;100.00
75317;BME280;63913;51.492;10.368;2023-12-22T05:47:54;96357.00;;;2.16;100.00
75317;BME280;63913;51.492;10.368;2023-12-22T05:50:19;96377.84;;;2.02;100.00
75317;BME280;63913;51.492;10.368;2023-12-22T05:52:44;96360.63;;;1.88;100.00
75317;BME280;63913;51.492;10.368;2023-12-22T05:55:10;96377.31;;;1.77;100.00
75317;BME280;63913;51.492;10.368;2023-12-22T05:57:36;96385.56;;;1.69;100.00
75317;BME280;63913;51.492;10.368;2023-12-22T06:00:05;96396.56;;;1.71;100.00
75317;BME280;63913;51.492;10.368;2023-12-22T06:02:33;96410.31;;;1.82;100.00
75317;BME280;63913;51.492;10.368;2023-12-22T06:04:58;96403.53;;;1.81;100.00
75317;BME280;63913;51.492;10.368;2023-12-22T06:07:23;96405.25;;;1.82;100.00
75317;BME280;63913;51.492;10.368;2023-12-22T06:09:49;96421.44;;;1.88;100.00
75317;BME280;63913;51.492;10.368;2023-12-22T06:12:14;96411.47;;;1.96;100.00
75317;BME280;63913;51.492;10.368;2023-12-22T06:14:39;96412.50;;;2.03;100.00
75317;BME280;63913;51.492;10.368;2023-12-22T06:17:05;96400.75;;;2.08;100.00
75317;BME280;63913;51.492;10.368;2023-12-22T06:19:30;96405.03;;;2.10;100.00
75317;BME280;63913;51.492;10.368;2023-12-22T06:21:56;96411.09;;;2.17;100.00
75317;BME280;63913;51.492;10.368;2023-12-22T06:24:23;96410.38;;;2.24;100.00
75317;BME280;63913;51.492;10.368;2023-12-22T06:26:48;96393.53;;;2.27;100.00
75317;BME280;63913;51.492;10.368;2023-12-22T06:29:13;96394.44;;;2.29;100.00
75317;BME280;63913;51.492;10.368;2023-12-22T06:31:39;96391.22;;;2.38;100.00
75317;BME280;63913;51.492;10.368;2023-12-22T06:34:05;96387.84;;;2.38;100.00
75317;BME280;63913;51.492;10.368;2023-12-22T06:36:30;96387.03;;;2.40;100.00
75317;BME280;63913;51.492;10.368;2023-12-22T06:38:55;96379.63;;;2.49;100.00
75317;BME280;63913;51.492;10.368;2023-12-22T06:41:24;96370.44;;;2.56;100.00
75317;BME280;63913;51.492;10.368;2023-12-22T06:43:50;96400.91;;;2.57;99.67
75317;BME280;63913;51.492;10.368;2023-12-22T06:46:20;96387.41;;;2.60;100.00
75317;BME280;63913;51.492;10.368;2023-12-22T06:48:45;96390.69;;;2.54;100.00
75317;BME280;63913;51.492;10.368;2023-12-22T06:51:22;96393.91;;;2.46;100.00
75317;BME280;63913;51.492;10.368;2023-12-22T06:53:48;96393.81;;;2.40;100.00
75317;BME280;63913;51.492;10.368;2023-12-22T06:56:21;96410.63;;;2.36;100.00
75317;BME280;63913;51.492;10.368;2023-12-22T06:58:48;96414.81;;;2.34;100.00
75317;BME280;63913;51.492;10.368;2023-12-22T07:01:21;96410.47;;;2.28;100.00
75317;BME280;63913;51.492;10.368;2023-12-22T07:03:47;96429.78;;;2.22;100.00
75317;BME280;63913;51.492;10.368;2023-12-22T07:06:14;96432.19;;;2.16;100.00
75317;BME280;63913;51.492;10.368;2023-12-22T07:08:40;96452.47;;;2.16;100.00
75317;BME280;63913;51.492;10.368;2023-12-22T07:11:05;96449.06;;;2.15;100.00
75317;BME280;63913;51.492;10.368;2023-12-22T07:13:32;96487.16;;;2.18;100.00
75317;BME280;63913;51.492;10.368;2023-12-22T07:15:57;96486.31;;;2.18;100.00
75317;BME280;63913;51.492;10.368;2023-12-22T07:18:23;96456.69;;;2.15;100.00
75317;BME280;63913;51.492;10.368;2023-12-22T07:20:50;96452.34;;;2.10;100.00
75317;BME280;63913;51.492;10.368;2023-12-22T07:23:15;96515.66;;;2.08;100.00
75317;BME280;63913;51.492;10.368;2023-12-22T07:25:41;96506.91;;;1.94;100.00
75317;BME280;63913;51.492;10.368;2023-12-22T07:28:06;96478.09;;;1.90;100.00
75317;BME280;63913;51.492;10.368;2023-12-22T07:30:31;96504.41;;;1.97;100.00
75317;BME280;63913;51.492;10.368;2023-12-22T07:32:57;96498.34;;;1.90;100.00
75317;BME280;63913;51.492;10.368;2023-12-22T07:35:22;96510.97;;;1.89;100.00
75317;BME280;63913;51.492;10.368;2023-12-22T07:37:48;96485.72;;;1.92;100.00
75317;BME280;63913;51.492;10.368;2023-12-22T07:40:13;96512.81;;;1.95;100.00
75317;BME280;63913;51.492;10.368;2023-12-22T07:42:38;96490.34;;;2.10;100.00
75317;BME280;63913;51.492;10.368;2023-12-22T07:45:05;96472.13;;;2.26;100.00
75317;BME280;63913;51.492;10.368;2023-12-22T07:47:31;96485.13;;;2.41;100.00
75317;BME280;63913;51.492;10.368;2023-12-22T07:49:57;96524.97;;;2.47;100.00
75317;BME280;63913;51.492;10.368;2023-12-22T07:52:22;96518.41;;;2.56;100.00
75317;BME280;63913;51.492;10.368;2023-12-22T07:54:47;96499.13;;;2.64;99.91
75317;BME280;63913;51.492;10.368;2023-12-22T07:57:13;96522.03;;;2.69;99.04
75317;BME280;63913;51.492;10.368;2023-12-22T07:59:38;96527.41;;;2.83;95.41
75317;BME280;63913;51.492;10.368;2023-12-22T08:02:04;96521.66;;;2.91;95.52
75317;BME280;63913;51.492;10.368;2023-12-22T08:04:29;96508.09;;;2.89;95.04
75317;BME280;63913;51.492;10.368;2023-12-22T08:06:55;96518.34;;;2.95;93.92
75317;BME280;63913;51.492;10.368;2023-12-22T08:09:20;96508.25;;;2.98;93.49
75317;BME280;63913;51.492;10.368;2023-12-22T08:11:48;96518.41;;;2.98;93.95
75317;BME280;63913;51.492;10.368;2023-12-22T08:14:17;96520.16;;;3.02;94.32
75317;BME280;63913;51.492;10.368;2023-12-22T08:16:43;96535.47;;;3.05;94.33
75317;BME280;63913;51.492;10.368;2023-12-22T08:19:09;96536.47;;;3.14;92.19
75317;BME280;63913;51.492;10.368;2023-12-22T08:21:35;96529.78;;;3.19;90.70
75317;BME280;63913;51.492;10.368;2023-12-22T08:24:00;96527.34;;;3.23;90.91
75317;BME280;63913;51.492;10.368;2023-12-22T08:26:25;96532.44;;;3.25;91.46
75317;BME280;63913;51.492;10.368;2023-12-22T08:28:51;96530.78;;;3.27;90.83
75317;BME280;63913;51.492;10.368;2023-12-22T08:31:16;96527.47;;;3.29;90.65
75317;BME280;63913;51.492;10.368;2023-12-22T08:33:41;96562.22;;;3.33;90.84
75317;BME280;63913;51.492;10.368;2023-12-22T08:36:09;96560.53;;;3.32;90.79
75317;BME280;63913;51.492;10.368;2023-12-22T08:38:34;96571.59;;;3.36;89.73
75317;BME280;63913;51.492;10.368;2023-12-22T08:40:59;96565.72;;;3.38;88.34
75317;BME280;63913;51.492;10.368;2023-12-22T08:43:25;96570.09;;;3.45;87.27
75317;BME280;63913;51.492;10.368;2023-12-22T08:45:50;96575.25;;;3.49;86.85
75317;BME280;63913;51.492;10.368;2023-12-22T08:48:15;96592.16;;;3.48;87.12
75317;BME280;63913;51.492;10.368;2023-12-22T08:50:40;96570.19;;;3.52;87.92
75317;BME280;63913;51.492;10.368;2023-12-22T08:53:06;96578.59;;;3.49;88.34
75317;BME280;63913;51.492;10.368;2023-12-22T08:55:31;96582.84;;;3.50;88.00
75317;BME280;63913;51.492;10.368;2023-12-22T08:57:56;96588.91;;;3.55;87.51
75317;BME280;63913;51.492;10.368;2023-12-22T09:00:22;96578.75;;;3.55;88.63
75317;BME280;63913;51.492;10.368;2023-12-22T09:02:47;96599.09;;;3.57;86.96
75317;BME280;63913;51.492;10.368;2023-12-22T09:05:12;96616.06;;;3.59;85.83
75317;BME280;63913;51.492;10.368;2023-12-22T09:07:38;96604.28;;;3.63;86.92
75317;BME280;63913;51.492;10.368;2023-12-22T09:10:04;96603.34;;;3.59;87.88
75317;BME280;63913;51.492;10.368;2023-12-22T09:12:30;96598.25;;;3.58;87.16
75317;BME280;63913;51.492;10.368;2023-12-22T09:14:55;96607.63;;;3.60;87.02
75317;BME280;63913;51.492;10.368;2023-12-22T09:17:20;96601.75;;;3.63;87.68
75317;BME280;63913;51.492;10.368;2023-12-22T09:19:46;96594.97;;;3.63;87.46
75317;BME280;63913;51.492;10.368;2023-12-22T09:22:11;96605.19;;;3.65;88.10
75317;BME280;63913;51.492;10.368;2023-12-22T09:24:37;96601.75;;;3.63;88.19
75317;BME280;63913;51.492;10.368;2023-12-22T09:27:03;96604.34;;;3.67;88.39
75317;BME280;63913;51.492;10.368;2023-12-22T09:29:30;96613.63;;;3.64;89.00
75317;BME280;63913;51.492;10.368;2023-12-22T09:31:57;96609.44;;;3.67;89.07
75317;BME280;63913;51.492;10.368;2023-12-22T09:34:26;96618.75;;;3.67;86.93
75317;BME280;63913;51.492;10.368;2023-12-22T09:36:51;96620.56;;;3.72;87.67
75317;BME280;63913;51.492;10.368;2023-12-22T09:39:17;96618.03;;;3.74;87.90
75317;BME280;63913;51.492;10.368;2023-12-22T09:41:48;96630.75;;;3.75;87.34
75317;BME280;63913;51.492;10.368;2023-12-22T09:44:18;96633.31;;;3.75;87.62
75317;BME280;63913;51.492;10.368;2023-12-22T09:46:45;96627.47;;;3.79;87.59
75317;BME280;63913;51.492;10.368;2023-12-22T09:49:11;96620.69;;;3.80;87.83
75317;BME280;63913;51.492;10.368;2023-12-22T09:51:38;96646.94;;;3.79;88.28
75317;BME280;63913;51.492;10.368;2023-12-22T09:54:04;96629.19;;;3.80;88.08
75317;BME280;63913;51.492;10.368;2023-12-22T09:56:30;96630.81;;;3.78;88.24
75317;BME280;63913;51.492;10.368;2023-12-22T09:58:56;96631.66;;;3.77;88.40
75317;BME280;63913;51.492;10.368;2023-12-22T10:01:22;96622.34;;;3.78;88.72
75317;BME280;63913;51.492;10.368;2023-12-22T10:03:49;96613.84;;;3.76;89.57
75317;BME280;63913;51.492;10.368;2023-12-22T10:06:14;96621.50;;;3.77;89.37
75317;BME280;63913;51.492;10.368;2023-12-22T10:08:42;96606.22;;;3.76;89.65
75317;BME280;63913;51.492;10.368;2023-12-22T10:11:08;96621.56;;;3.80;89.59
75317;BME280;63913;51.492;10.368;2023-12-22T10:13:36;96610.59;;;3.84;89.27
75317;BME280;63913;51.492;10.368;2023-12-22T10:16:02;96617.34;;;3.82;89.34
75317;BME280;63913;51.492;10.368;2023-12-22T10:18:28;96613.06;;;3.81;90.38
75317;BME280;63913;51.492;10.368;2023-12-22T10:20:54;96606.31;;;3.82;88.95
75317;BME280;63913;51.492;10.368;2023-12-22T10:23:19;96595.38;;;3.86;88.92
75317;BME280;63913;51.492;10.368;2023-12-22T10:25:45;96589.44;;;3.86;89.27
75317;BME280;63913;51.492;10.368;2023-12-22T10:28:11;96595.34;;;3.84;89.64
75317;BME280;63913;51.492;10.368;2023-12-22T10:30:40;96595.38;;;3.86;89.60
75317;BME280;63913;51.492;10.368;2023-12-22T10:33:06;96590.28;;;3.86;89.51
75317;BME280;63913;51.492;10.368;2023-12-22T10:35:31;96613.13;;;3.84;90.55
75317;BME280;63913;51.492;10.368;2023-12-22T10:37:58;96604.69;;;3.86;92.37
75317;BME280;63913;51.492;10.368;2023-12-22T10:40:25;96585.19;;;3.84;93.65
75317;BME280;63913;51.492;10.368;2023-12-22T10:42:50;96584.28;;;3.82;93.58
75317;BME280;63913;51.492;10.368;2023-12-22T10:45:18;96569.03;;;3.82;94.36
75317;BME280;63913;51.492;10.368;2023-12-22T10:47:43;96568.22;;;3.83;94.19
75317;BME280;63913;51.492;10.368;2023-12-22T10:50:12;96574.97;;;3.83;94.17
75317;BME280;63913;51.492;10.368;2023-12-22T10:52:38;96575.03;;;3.86;93.12
75317;BME280;63913;51.492;10.368;2023-12-22T10:55:03;96576.00;;;3.93;94.33
75317;BME280;63913;51.492;10.368;2023-12-22T10:57:31;96563.28;;;3.93;94.90
75317;BME280;63913;51.492;10.368;2023-12-22T11:00:03;96557.41;;;3.95;94.62
75317;BME280;63913;51.492;10.368;2023-12-22T11:02:30;96555.63;;;3.91;94.99
75317;BME280;63913;51.492;10.368;2023-12-22T11:05:05;96543.81;;;3.93;94.97
75317;BME280;63913;51.492;10.368;2023-12-22T11:07:33;96540.44;;;3.94;95.62
75317;BME280;63913;51.492;10.368;2023-12-22T11:10:06;96534.50;;;3.94;95.77
75317;BME280;63913;51.492;10.368;2023-12-22T11:12:35;96525.19;;;3.94;96.04
75317;BME280;63913;51.492;10.368;2023-12-22T11:15:02;96538.69;;;3.92;96.44
75317;BME280;63913;51.492;10.368;2023-12-22T11:17:32;96538.69;;;3.92;96.30
75317;BME280;63913;51.492;10.368;2023-12-22T11:19:58;96522.69;;;3.96;96.75
75317;BME280;63913;51.492;10.368;2023-12-22T11:22:24;96541.25;;;3.92;96.94
75317;BME280;63913;51.492;10.368;2023-12-22T11:24:50;96518.41;;;3.95;96.61
75317;BME280;63913;51.492;10.368;2023-12-22T11:27:20;96527.69;;;3.93;96.63
75317;BME280;63913;51.492;10.368;2023-12-22T11:29:50;96517.56;;;3.94;97.03
75317;BME280;63913;51.492;10.368;2023-12-22T11:32:17;96518.44;;;3.98;96.69
75317;BME280;63913;51.492;10.368;2023-12-22T11:34:44;96492.97;;;3.93;97.99
75317;BME280;63913;51.492;10.368;2023-12-22T11:37:14;96513.34;;;3.95;97.81
75317;BME280;63913;51.492;10.368;2023-12-22T11:39:41;96515.03;;;3.96;97.85
75317;BME280;63913;51.492;10.368;2023-12-22T11:42:08;96486.22;;;3.95;98.25
75317;BME280;63913;51.492;10.368;2023-12-22T11:44:35;96492.19;;;3.99;97.36
75317;BME280;63913;51.492;10.368;2023-12-22T11:47:08;96495.66;;;4.02;97.11
75317;BME280;63913;51.492;10.368;2023-12-22T11:49:36;96498.22;;;4.04;96.30
75317;BME280;63913;51.492;10.368;2023-12-22T11:57:33;96483.81;;;4.06;96.58
75317;BME280;63913;51.492;10.368;2023-12-22T12:00:02;96517.78;;;4.09;96.41
75317;BME280;63913;51.492;10.368;2023-12-22T12:02:55;96505.97;;;4.11;96.06
75317;BME280;63913;51.492;10.368;2023-12-22T12:05:20;96494.09;;;4.12;96.18
75317;BME280;63913;51.492;10.368;2023-12-22T12:07:47;96512.03;;;4.19;95.80
75317;BME280;63913;51.492;10.368;2023-12-22T12:13:11;96509.44;;;4.18;96.14
75317;BME280;63913;51.492;10.368;2023-12-22T12:15:37;96517.09;;;4.19;95.76
75317;BME280;63913;51.492;10.368;2023-12-22T12:18:04;96512.09;;;4.26;95.72
75317;BME280;63913;51.492;10.368;2023-12-22T12:20:33;96502.78;;;4.26;95.74
75317;BME280;63913;51.492;10.368;2023-12-22T12:23:01;96500.28;;;4.28;95.58
75317;BME280;63913;51.492;10.368;2023-12-22T12:25:32;96499.44;;;4.30;95.80
75317;BME280;63913;51.492;10.368;2023-12-22T12:28:07;96486.72;;;4.29;95.65
75317;BME280;63913;51.492;10.368;2023-12-22T12:30:38;96506.28;;;4.34;95.20
75317;BME280;63913;51.492;10.368;2023-12-22T12:33:12;96507.16;;;4.35;95.47
75317;BME280;63913;51.492;10.368;2023-12-22T12:35:38;96500.34;;;4.34;95.36
75317;BME280;63913;51.492;10.368;2023-12-22T12:38:04;96497.03;;;4.38;95.84
75317;BME280;63913;51.492;10.368;2023-12-22T12:40:31;96489.38;;;4.39;95.50
75317;BME280;63913;51.492;10.368;2023-12-22T12:43:01;96486.84;;;4.39;95.79
75317;BME280;63913;51.492;10.368;2023-12-22T12:45:28;96478.38;;;4.37;96.64
75317;BME280;63913;51.492;10.368;2023-12-22T12:48:03;96488.47;;;4.34;96.98
75317;BME280;63913;51.492;10.368;2023-12-22T12:50:30;96479.13;;;4.33;97.46
75317;BME280;63913;51.492;10.368;2023-12-22T12:52:56;96486.81;;;4.35;97.25
75317;BME280;63913;51.492;10.368;2023-12-22T12:55:24;96497.84;;;4.37;97.22
75317;BME280;63913;51.492;10.368;2023-12-22T12:57:54;96487.69;;;4.38;97.21
75317;BME280;63913;51.492;10.368;2023-12-22T13:00:28;96480.91;;;4.37;97.30
75317;BME280;63913;51.492;10.368;2023-12-22T13:03:04;96470.66;;;4.33;97.97